Аэропорт: Рощино. Тюмень

ICAO: USTR

METAR:
2020-06-01 03:00:00
USTR 010300Z 10007MPS 9999 BKN006 OVC016CB 09/08 Q1003 R03/290060 R12/290060 TEMPO -TSRA BKN004 BKN015CB RMK QBB180 QFE742/0989
METAR:
2020-06-01 01:53:00
TAF USTR 010153Z 0103/0203 06005G11MPS 6000 -SHRA BKN007 BKN016CB TEMPO 0103/0106 07008G17MPS 3100 -TSRA BKN004 BKN016CB BECMG 0110/0112 36007G12MPS BKN020CB